Time;durP1;ratioP1;P1;durP2;ratioP2;P2;SDS_P1;SDS_P2;PMS_P1;PMS_P2;Temp;Humidity;BMP_temperature;BMP_pressure;BME280_temperature;BME280_humidity;BME280_pressure;Samples;Min_cycle;Max_cycle;Signal;HPM_P1;HPM_P2
2021/04/30 00:01:29;;;;;;;38.40;19.08;;;;;;;;;;8291378;28;20371;-69
2021/04/30 00:05:37;;;;;;;39.88;19.40;;;;;;;;;;8290758;28;20052;-69
2021/04/30 00:09:41;;;;;;;35.20;18.38;;;;;;;;;;8289237;28;20466;-70
2021/04/30 00:13:46;;;;;;;33.50;15.90;;;;;;;;;;8290147;28;20443;-70
2021/04/30 00:17:50;;;;;;;42.80;18.05;;;;;;;;;;8289347;28;20460;-70
2021/04/30 00:21:55;;;;;;;36.83;18.30;;;;;;;;;;8289122;28;20455;-70
2021/04/30 00:26:07;;;;;;;38.65;17.65;;;;;;;;;;8288782;28;20170;-71
2021/04/30 00:30:14;;;;;;;34.65;17.88;;;;;;;;;;8289676;28;20337;-71
2021/04/30 00:34:22;;;;;;;41.10;18.58;;;;;;;;;;8288469;28;20341;-72
2021/04/30 00:38:26;;;;;;;;;;;;;;;;;;8272650;28;20501;-71
2021/04/30 00:42:31;;;;;;;34.13;17.73;;;;;;;;;;8289621;28;20267;-72
2021/04/30 00:46:36;;;;;;;33.28;17.35;;;;;;;;;;8288888;28;20486;-71
2021/04/30 00:50:40;;;;;;;40.72;18.48;;;;;;;;;;8270218;28;20483;-71
2021/04/30 00:54:46;;;;;;;34.47;17.55;;;;;;;;;;8288391;28;20044;-72
2021/04/30 00:58:52;;;;;;;31.60;17.58;;;;;;;;;;8287998;28;20482;-73
2021/04/30 01:02:56;;;;;;;33.10;17.48;;;;;;;;;;8296671;28;20541;-72
2021/04/30 01:07:02;;;;;;;34.83;18.15;;;;;;;;;;8323815;28;20470;-72
2021/04/30 01:11:07;;;;;;;37.15;18.25;;;;;;;;;;8321284;28;20348;-72
2021/04/30 01:15:15;;;;;;;35.80;19.58;;;;;;;;;;8321223;28;20455;-72
2021/04/30 01:19:30;;;;;;;31.92;16.00;;;;;;;;;;8323625;28;20071;-72
2021/04/30 01:23:48;;;;;;;35.08;16.42;;;;;;;;;;8310419;28;20489;-73
2021/04/30 01:27:55;;;;;;;31.75;16.38;;;;;;;;;;8309905;28;20498;-73
2021/04/30 01:31:57;;;;;;;28.17;16.45;;;;;;;;;;8311157;28;20354;-73
2021/04/30 01:36:04;;;;;;;32.58;16.90;;;;;;;;;;8309603;28;20133;-73
2021/04/30 01:40:18;;;;;;;31.63;15.68;;;;;;;;;;8310264;28;20412;-73
2021/04/30 01:44:23;;;;;;;35.53;16.17;;;;;;;;;;8327167;28;20493;-73
2021/04/30 01:48:31;;;;;;;30.13;15.43;;;;;;;;;;8327397;28;20125;-73
2021/04/30 01:52:35;;;;;;;25.65;15.73;;;;;;;;;;8327311;28;20040;-75
2021/04/30 01:56:39;;;;;;;26.90;15.23;;;;;;;;;;8310019;28;20079;-74
2021/04/30 02:00:44;;;;;;;29.05;15.52;;;;;;;;;;8327216;28;20355;-75
2021/04/30 02:04:49;;;;;;;29.45;15.35;;;;;;;;;;8326878;28;20421;-74
2021/04/30 02:08:55;;;;;;;32.15;17.23;;;;;;;;;;8327319;28;20482;-73
2021/04/30 02:13:00;;;;;;;30.40;15.88;;;;;;;;;;8309380;28;20458;-73
2021/04/30 02:17:06;;;;;;;28.88;15.98;;;;;;;;;;8310835;28;20347;-73
2021/04/30 02:21:10;;;;;;;31.08;15.88;;;;;;;;;;8326211;28;20048;-73
2021/04/30 02:25:16;;;;;;;26.15;14.85;;;;;;;;;;8326365;28;20040;-73
2021/04/30 02:29:21;;;;;;;33.22;15.88;;;;;;;;;;8325837;28;20427;-73
2021/04/30 02:33:26;;;;;;;27.77;15.13;;;;;;;;;;8325789;28;20478;-73
2021/04/30 02:37:30;;;;;;;25.90;14.02;;;;;;;;;;8326381;28;20048;-73
2021/04/30 02:41:35;;;;;;;29.20;15.05;;;;;;;;;;8325376;28;20455;-73
2021/04/30 02:45:44;;;;;;;25.35;14.57;;;;;;;;;;8325980;28;20497;-73
2021/04/30 02:49:49;;;;;;;27.52;14.30;;;;;;;;;;8325012;28;20047;-73
2021/04/30 02:53:53;;;;;;;24.65;14.52;;;;;;;;;;8325134;28;20507;-72
2021/04/30 02:58:00;;;;;;;25.17;14.32;;;;;;;;;;8306569;28;20397;-72
2021/04/30 03:02:05;;;;;;;24.33;14.10;;;;;;;;;;8324919;28;20066;-73
2021/04/30 03:06:10;;;;;;;27.00;14.07;;;;;;;;;;8323469;28;20364;-72
2021/04/30 03:10:16;;;;;;;27.50;13.85;;;;;;;;;;8323986;28;20398;-73
2021/04/30 03:14:20;;;;;;;25.63;14.40;;;;;;;;;;8306618;28;20631;-73
2021/04/30 03:18:25;;;;;;;27.60;13.50;;;;;;;;;;8323241;28;20407;-73
2021/04/30 03:22:29;;;;;;;23.55;11.65;;;;;;;;;;8325717;28;20114;-73
2021/04/30 03:26:34;;;;;;;20.25;11.63;;;;;;;;;;8307114;28;20347;-73
2021/04/30 03:30:38;;;;;;;22.77;12.70;;;;;;;;;;8306808;28;20380;-73
2021/04/30 03:34:42;;;;;;;24.30;12.15;;;;;;;;;;8322784;28;20040;-73
2021/04/30 03:38:48;;;;;;;18.63;10.70;;;;;;;;;;8326037;28;20494;-73
2021/04/30 03:42:53;;;;;;;22.95;11.80;;;;;;;;;;8324696;28;20048;-73
2021/04/30 03:46:57;;;;;;;19.25;10.90;;;;;;;;;;8323796;28;20470;-73
2021/04/30 03:51:02;;;;;;;19.60;11.18;;;;;;;;;;8324390;28;20435;-73
2021/04/30 03:55:07;;;;;;;23.25;13.15;;;;;;;;;;8322628;28;20347;-73
2021/04/30 03:59:12;;;;;;;22.75;12.80;;;;;;;;;;8322486;28;20074;-75
2021/04/30 04:03:18;;;;;;;25.33;13.38;;;;;;;;;;8305251;28;20493;-73
2021/04/30 04:07:23;;;;;;;22.92;13.07;;;;;;;;;;8322794;28;20358;-74
2021/04/30 04:11:27;;;;;;;28.98;15.32;;;;;;;;;;8305144;28;20474;-73
2021/04/30 04:15:31;;;;;;;29.50;14.63;;;;;;;;;;8322543;28;20382;-73
2021/04/30 04:19:36;;;;;;;24.90;15.35;;;;;;;;;;8304611;28;20454;-73
2021/04/30 04:23:40;;;;;;;30.40;14.60;;;;;;;;;;8306782;28;20320;-73
2021/04/30 04:27:45;;;;;;;28.88;15.48;;;;;;;;;;8321866;28;20405;-73
2021/04/30 04:31:49;;;;;;;27.58;15.27;;;;;;;;;;8321776;28;20489;-73
2021/04/30 04:35:55;;;;;;;26.73;15.80;;;;;;;;;;8321572;28;20082;-75
2021/04/30 04:39:59;;;;;;;26.73;14.93;;;;;;;;;;8320874;28;20060;-74
2021/04/30 04:44:05;;;;;;;24.23;15.60;;;;;;;;;;8322120;28;20379;-72
2021/04/30 04:48:10;;;;;;;27.63;15.52;;;;;;;;;;8323553;28;20379;-72
2021/04/30 04:52:16;;;;;;;26.23;15.75;;;;;;;;;;8322090;28;20384;-73
2021/04/30 04:56:26;;;;;;;28.65;17.10;;;;;;;;;;8323245;28;20463;-72
2021/04/30 05:00:33;;;;;;;29.17;17.02;;;;;;;;;;8311703;28;20401;-72
2021/04/30 05:04:38;;;;;;;26.45;15.15;;;;;;;;;;8327661;28;20459;-72
2021/04/30 05:08:42;;;;;;;25.73;16.67;;;;;;;;;;8329759;28;20390;-72
2021/04/30 05:12:47;;;;;;;29.98;16.20;;;;;;;;;;8309216;28;20471;-72
2021/04/30 05:16:53;;;;;;;33.22;18.20;;;;;;;;;;8329097;28;20366;-72
2021/04/30 05:20:57;;;;;;;35.60;19.00;;;;;;;;;;8327550;28;20493;-76
2021/04/30 05:25:00;;;;;;;33.90;17.20;;;;;;;;;;8311171;28;20475;-72
2021/04/30 05:29:07;;;;;;;35.92;18.33;;;;;;;;;;8327677;28;20052;-72
2021/04/30 05:33:11;;;;;;;30.10;16.42;;;;;;;;;;8309165;28;20078;-72
2021/04/30 05:37:16;;;;;;;28.50;15.95;;;;;;;;;;8326117;28;20074;-73
2021/04/30 05:41:21;;;;;;;24.90;13.95;;;;;;;;;;8325559;28;20451;-72
2021/04/30 05:45:25;;;;;;;20.63;11.48;;;;;;;;;;8330301;28;20392;-72
2021/04/30 05:49:36;;;;;;;15.90;10.18;;;;;;;;;;8326425;28;20385;-73
2021/04/30 05:53:42;;;;;;;18.48;9.25;;;;;;;;;;8292591;28;20074;-72
2021/04/30 05:58:04;;;;;;;12.38;7.10;;;;;;;;;;8327077;28;20080;-73
2021/04/30 06:02:09;;;;;;;14.02;6.13;;;;;;;;;;8326304;28;20401;-71
2021/04/30 06:06:15;;;;;;;10.05;5.13;;;;;;;;;;8325404;28;20386;-72
2021/04/30 06:10:21;;;;;;;12.10;4.95;;;;;;;;;;8327437;28;20473;-72
2021/04/30 06:14:30;;;;;;;6.72;4.25;;;;;;;;;;8307590;28;20405;-71
2021/04/30 06:18:34;;;;;;;7.70;4.50;;;;;;;;;;8326863;28;20382;-71
2021/04/30 06:22:39;;;;;;;7.53;3.75;;;;;;;;;;8324226;28;20379;-71
2021/04/30 06:26:48;;;;;;;4.90;3.72;;;;;;;;;;8326699;28;20489;-71
2021/04/30 06:30:57;;;;;;;8.10;4.90;;;;;;;;;;8307733;28;20466;-71
2021/04/30 06:35:03;;;;;;;8.90;4.40;;;;;;;;;;8325347;28;20078;-71
2021/04/30 06:39:08;;;;;;;22.77;9.27;;;;;;;;;;8326913;28;20389;-71
2021/04/30 06:43:12;;;;;;;22.08;10.93;;;;;;;;;;8307712;28;20386;-71
2021/04/30 06:47:16;;;;;;;6.28;3.53;;;;;;;;;;8325172;28;20374;-71
2021/04/30 06:51:21;;;;;;;31.25;15.25;;;;;;;;;;8311393;28;20421;-70
2021/04/30 06:55:25;;;;;;;7.50;4.18;;;;;;;;;;8326851;28;20356;-70
2021/04/30 06:59:30;;;;;;;5.10;3.40;;;;;;;;;;8325409;28;20356;-70
2021/04/30 07:03:34;;;;;;;5.75;3.40;;;;;;;;;;8324950;28;20369;-70
2021/04/30 07:07:41;;;;;;;8.60;3.75;;;;;;;;;;8325568;28;20444;-70
2021/04/30 07:11:46;;;;;;;7.45;4.05;;;;;;;;;;8326497;28;20161;-70
2021/04/30 07:15:51;;;;;;;5.57;3.47;;;;;;;;;;8323000;28;20052;-69
2021/04/30 07:19:55;;;;;;;9.20;4.47;;;;;;;;;;8323944;28;20757;-70
2021/04/30 07:24:00;;;;;;;8.32;3.35;;;;;;;;;;8305788;28;20056;-69
2021/04/30 07:28:03;;;;;;;8.45;3.90;;;;;;;;;;8324132;28;20088;-70
2021/04/30 07:32:08;;;;;;;11.82;5.53;;;;;;;;;;8325391;28;20375;-70
2021/04/30 07:36:16;;;;;;;9.40;5.07;;;;;;;;;;8322120;28;20493;-69
2021/04/30 07:40:20;;;;;;;10.20;5.57;;;;;;;;;;8324764;28;20344;-69
2021/04/30 07:44:25;;;;;;;8.00;5.32;;;;;;;;;;8325200;28;20732;-71
2021/04/30 07:48:33;;;;;;;7.68;3.58;;;;;;;;;;8322972;28;20351;-70
2021/04/30 07:52:39;;;;;;;6.05;3.75;;;;;;;;;;8290347;28;20362;-70
2021/04/30 07:56:49;;;;;;;6.03;3.28;;;;;;;;;;8321942;28;20051;-70
2021/04/30 08:00:55;;;;;;;4.60;3.05;;;;;;;;;;8324765;28;20474;-70
2021/04/30 08:05:01;;;;;;;7.78;3.10;;;;;;;;;;8305350;28;20459;-71
2021/04/30 08:09:06;;;;;;;12.23;4.93;;;;;;;;;;8322631;28;20350;-70
2021/04/30 08:13:11;;;;;;;37.13;12.90;;;;;;;;;;8322386;28;20346;-71
2021/04/30 08:17:16;;;;;;;9.63;4.47;;;;;;;;;;8322751;28;20378;-70
2021/04/30 08:21:19;;;;;;;7.82;3.90;;;;;;;;;;8304541;28;20378;-73
2021/04/30 08:25:24;;;;;;;6.40;3.97;;;;;;;;;;8323732;28;20371;-70
2021/04/30 08:29:29;;;;;;;13.65;5.75;;;;;;;;;;8324432;28;20489;-70
2021/04/30 08:33:33;;;;;;;11.35;4.72;;;;;;;;;;8329564;28;20479;-70
2021/04/30 08:37:38;;;;;;;60.75;17.25;;;;;;;;;;8331080;28;20048;-69
2021/04/30 08:41:41;;;;;;;43.95;13.98;;;;;;;;;;8331336;28;20351;-69
2021/04/30 08:45:46;;;;;;;44.55;13.82;;;;;;;;;;8329260;28;20052;-70
2021/04/30 08:49:55;;;;;;;13.55;6.25;;;;;;;;;;8329922;28;20382;-70
2021/04/30 08:54:02;;;;;;;35.83;12.40;;;;;;;;;;8330181;28;20431;-69
2021/04/30 08:58:10;;;;;;;18.20;6.88;;;;;;;;;;8330893;28;20393;-69
2021/04/30 09:02:15;;;;;;;8.85;3.80;;;;;;;;;;8311536;28;20347;-69
2021/04/30 09:06:35;;;;;;;7.28;3.53;;;;;;;;;;8310512;28;20386;-69
2021/04/30 09:10:46;;;;;;;6.65;3.58;;;;;;;;;;8330718;28;20374;-70
2021/04/30 09:14:50;;;;;;;27.05;8.63;;;;;;;;;;8329034;28;20408;-69
2021/04/30 09:18:55;;;;;;;40.47;13.88;;;;;;;;;;8310590;28;20407;-70
2021/04/30 09:22:59;;;;;;;8.68;3.58;;;;;;;;;;8328216;28;20474;-69
2021/04/30 09:27:05;;;;;;;7.93;3.17;;;;;;;;;;8309883;28;20383;-69
2021/04/30 09:31:10;;;;;;;16.00;5.75;;;;;;;;;;8328079;28;20402;-70
2021/04/30 09:35:23;;;;;;;8.63;5.03;;;;;;;;;;8325831;28;20370;-70
2021/04/30 09:39:27;;;;;;;6.78;3.72;;;;;;;;;;8293455;28;20465;-70
2021/04/30 09:43:51;;;;;;;15.90;5.75;;;;;;;;;;8327871;28;20342;-70
2021/04/30 09:47:58;;;;;;;4.60;2.60;;;;;;;;;;8309696;28;20362;-70
2021/04/30 09:52:04;;;;;;;6.95;3.00;;;;;;;;;;8327245;28;20405;-70
2021/04/30 09:56:09;;;;;;;4.43;3.17;;;;;;;;;;8329514;28;20370;-70
2021/04/30 10:00:15;;;;;;;7.03;4.35;;;;;;;;;;8294292;28;20074;-69
2021/04/30 10:04:26;;;;;;;8.35;3.28;;;;;;;;;;8294914;28;20454;-69
2021/04/30 10:08:32;;;;;;;7.75;3.55;;;;;;;;;;8309105;28;20358;-70
2021/04/30 10:12:42;;;;;;;4.57;3.17;;;;;;;;;;8292369;28;20380;-70
2021/04/30 10:16:47;;;;;;;8.25;3.58;;;;;;;;;;8310171;28;20475;-70
2021/04/30 10:20:51;;;;;;;7.70;4.15;;;;;;;;;;8308594;28;20078;-70
2021/04/30 10:24:59;;;;;;;7.97;4.28;;;;;;;;;;8327597;28;20450;-69
2021/04/30 10:29:07;;;;;;;11.90;4.68;;;;;;;;;;8309131;28;20475;-69
2021/04/30 10:33:44;;;;;;;6.70;3.55;;;;;;;;;;8292033;28;20374;-69
2021/04/30 10:37:48;;;;;;;6.00;3.87;;;;;;;;;;8311343;28;20070;-69
2021/04/30 10:41:52;;;;;;;6.13;2.95;;;;;;;;;;8304326;28;20401;-69
2021/04/30 10:46:14;;;;;;;8.35;2.88;;;;;;;;;;8304251;28;20433;-69
2021/04/30 10:50:20;;;;;;;3.95;2.58;;;;;;;;;;8326549;28;20470;-69
2021/04/30 10:54:30;;;;;;;6.13;2.72;;;;;;;;;;8325836;28;20316;-69
2021/04/30 10:58:38;;;;;;;11.60;3.42;;;;;;;;;;8325308;28;20447;-70
2021/04/30 11:02:42;;;;;;;26.90;8.93;;;;;;;;;;8324770;28;20487;-70
2021/04/30 11:06:51;;;;;;;18.85;6.63;;;;;;;;;;8325183;28;20467;-69
2021/04/30 11:11:05;;;;;;;9.23;3.00;;;;;;;;;;8307310;28;20351;-69
2021/04/30 11:15:10;;;;;;;6.03;2.90;;;;;;;;;;8306816;28;20359;-69
2021/04/30 11:19:16;;;;;;;19.00;5.60;;;;;;;;;;8325115;28;20512;-69
2021/04/30 11:23:28;;;;;;;6.13;3.90;;;;;;;;;;8325091;28;20366;-68
2021/04/30 11:27:35;;;;;;;7.03;3.28;;;;;;;;;;8324843;28;20366;-68
2021/04/30 11:31:40;;;;;;;;;;;;;;;;;;8308846;28;20465;-70
2021/04/30 11:35:45;;;;;;;7.95;3.10;;;;;;;;;;8290716;28;20365;-69
2021/04/30 11:39:56;;;;;;;12.82;5.88;;;;;;;;;;8291527;28;20344;-69
2021/04/30 11:44:01;;;;;;;6.40;3.15;;;;;;;;;;8289469;28;20049;-71
2021/04/30 11:48:06;;;;;;;12.43;4.18;;;;;;;;;;8289806;28;20457;-69
2021/04/30 11:52:12;;;;;;;14.85;6.80;;;;;;;;;;8290658;28;20364;-68
2021/04/30 11:56:17;;;;;;;6.30;2.80;;;;;;;;;;8289952;28;20368;-68
2021/04/30 12:00:26;;;;;;;7.50;2.90;;;;;;;;;;8290022;28;20414;-68
2021/04/30 12:04:51;;;;;;;15.65;6.55;;;;;;;;;;8288025;28;20440;-69
2021/04/30 12:09:15;;;;;;;12.15;3.05;;;;;;;;;;8289458;28;20497;-72
2021/04/30 12:13:21;;;;;;;8.80;4.22;;;;;;;;;;8290302;28;20451;-68
2021/04/30 12:17:38;;;;;;;3.70;2.55;;;;;;;;;;8273407;28;20483;-68
2021/04/30 12:21:43;;;;;;;9.65;4.50;;;;;;;;;;8291711;28;20456;-68
2021/04/30 12:25:51;;;;;;;8.48;4.45;;;;;;;;;;8290600;28;20479;-68
2021/04/30 12:29:56;;;;;;;6.53;2.92;;;;;;;;;;8288820;28;20356;-69
2021/04/30 12:34:01;;;;;;;9.02;3.15;;;;;;;;;;8298169;28;20074;-69
2021/04/30 12:38:06;;;;;;;7.45;2.63;;;;;;;;;;8325206;28;20378;-69
2021/04/30 12:42:10;;;;;;;7.93;3.03;;;;;;;;;;8288632;28;20048;-69
2021/04/30 12:46:27;;;;;;;6.70;2.95;;;;;;;;;;8288520;28;20056;-68
2021/04/30 12:50:32;;;;;;;16.27;3.03;;;;;;;;;;8306055;28;20340;-69
2021/04/30 12:54:36;;;;;;;6.80;2.63;;;;;;;;;;8322992;28;20052;-68
2021/04/30 12:58:41;;;;;;;7.40;2.95;;;;;;;;;;8322561;28;20386;-68
2021/04/30 13:02:46;;;;;;;4.18;2.38;;;;;;;;;;8325265;28;20054;-68
2021/04/30 13:06:53;;;;;;;6.88;2.42;;;;;;;;;;8305489;28;20048;-68
2021/04/30 13:11:16;;;;;;;5.97;2.00;;;;;;;;;;8322949;28;20462;-68
2021/04/30 13:15:28;;;;;;;7.70;3.40;;;;;;;;;;8323180;28;20463;-68
2021/04/30 13:19:32;;;;;;;6.70;4.03;;;;;;;;;;8327753;28;20588;-69
2021/04/30 13:23:40;;;;;;;7.53;4.30;;;;;;;;;;8328881;28;20078;-70
2021/04/30 13:27:52;;;;;;;3.58;2.10;;;;;;;;;;8327240;28;20420;-68
2021/04/30 13:32:09;;;;;;;3.85;1.98;;;;;;;;;;8309970;28;20352;-68
2021/04/30 13:36:14;;;;;;;4.65;2.42;;;;;;;;;;8315020;28;20436;-68
2021/04/30 13:40:19;;;;;;;8.00;2.45;;;;;;;;;;8306888;28;20044;-68
2021/04/30 13:44:23;;;;;;;8.23;2.65;;;;;;;;;;8309594;28;20376;-69
2021/04/30 13:48:27;;;;;;;9.05;2.58;;;;;;;;;;8291441;28;20471;-68
2021/04/30 13:52:31;;;;;;;4.18;1.88;;;;;;;;;;8293958;28;20463;-69
2021/04/30 13:56:34;;;;;;;4.28;2.10;;;;;;;;;;8289929;28;20052;-70
2021/04/30 14:00:45;;;;;;;13.70;5.20;;;;;;;;;;8316286;28;20048;-69
2021/04/30 14:04:55;;;;;;;5.68;2.25;;;;;;;;;;8315786;28;20460;-69
2021/04/30 14:09:17;;;;;;;4.43;2.63;;;;;;;;;;8307491;28;20371;-68
2021/04/30 14:13:23;;;;;;;6.70;1.88;;;;;;;;;;8310236;28;20359;-68
2021/04/30 14:17:28;;;;;;;4.32;2.53;;;;;;;;;;8322800;28;20459;-69
2021/04/30 14:21:34;;;;;;;7.35;2.10;;;;;;;;;;8301648;28;20439;-68
2021/04/30 14:25:38;;;;;;;6.60;2.40;;;;;;;;;;8326493;28;20063;-70
2021/04/30 14:29:43;;;;;;;5.10;2.45;;;;;;;;;;8325569;28;20364;-69
2021/04/30 14:33:47;;;;;;;7.30;3.55;;;;;;;;;;8324815;28;20383;-70
2021/04/30 14:37:51;;;;;;;12.82;7.43;;;;;;;;;;8326350;28;20048;-69
2021/04/30 14:41:55;;;;;;;7.57;3.47;;;;;;;;;;8324114;28;20070;-69
2021/04/30 14:46:00;;;;;;;4.15;2.28;;;;;;;;;;8308953;28;20360;-69
2021/04/30 14:50:09;;;;;;;5.18;2.10;;;;;;;;;;8324936;28;20093;-68
2021/04/30 14:54:15;;;;;;;4.47;1.88;;;;;;;;;;8324676;28;20417;-69
2021/04/30 14:58:20;;;;;;;9.30;2.70;;;;;;;;;;8326409;28;20471;-69
2021/04/30 15:02:23;;;;;;;6.30;2.35;;;;;;;;;;8325098;28;20391;-69
2021/04/30 15:06:28;;;;;;;5.68;2.47;;;;;;;;;;8326628;28;20362;-69
2021/04/30 15:10:33;;;;;;;5.90;3.35;;;;;;;;;;8326178;28;20328;-69
2021/04/30 15:14:39;;;;;;;13.90;5.53;;;;;;;;;;8325268;28;20367;-68
2021/04/30 15:18:44;;;;;;;15.25;8.82;;;;;;;;;;8325252;28;20371;-69
2021/04/30 15:22:48;;;;;;;3.83;2.20;;;;;;;;;;8325455;28;20494;-68
2021/04/30 15:26:52;;;;;;;5.22;2.80;;;;;;;;;;8324007;28;20363;-69
2021/04/30 15:30:57;;;;;;;5.35;2.72;;;;;;;;;;8324350;28;20052;-69
2021/04/30 15:35:01;;;;;;;6.85;3.72;;;;;;;;;;8324698;28;20074;-69
2021/04/30 15:39:06;;;;;;;7.25;4.68;;;;;;;;;;8324345;28;20461;-69
2021/04/30 15:43:10;;;;;;;11.63;4.65;;;;;;;;;;8323704;28;20052;-68
2021/04/30 15:47:14;;;;;;;18.52;6.00;;;;;;;;;;8324210;28;20490;-70
2021/04/30 15:51:19;;;;;;;11.68;2.50;;;;;;;;;;8323652;28;20478;-69
2021/04/30 15:55:25;;;;;;;6.00;2.72;;;;;;;;;;8323241;28;20478;-68
2021/04/30 15:59:32;;;;;;;6.30;2.92;;;;;;;;;;8323061;28;20366;-68
2021/04/30 16:03:35;;;;;;;5.57;2.30;;;;;;;;;;8324507;28;20376;-68
2021/04/30 16:07:41;;;;;;;6.63;2.65;;;;;;;;;;8324055;28;20071;-69
2021/04/30 16:11:45;;;;;;;5.18;2.28;;;;;;;;;;8322333;28;20063;-68
2021/04/30 16:15:48;;;;;;;4.57;2.85;;;;;;;;;;8323249;28;20044;-69
2021/04/30 16:19:52;;;;;;;7.22;2.90;;;;;;;;;;8322014;28;20447;-68
2021/04/30 16:23:56;;;;;;;8.45;2.47;;;;;;;;;;8324045;28;20056;-69
2021/04/30 16:28:01;;;;;;;3.42;2.17;;;;;;;;;;8323035;28;20354;-69
2021/04/30 16:32:21;;;;;;;4.72;2.05;;;;;;;;;;8323318;28;20391;-69
2021/04/30 16:36:26;;;;;;;3.50;2.08;;;;;;;;;;8321336;28;20378;-69
2021/04/30 16:40:30;;;;;;;7.93;3.45;;;;;;;;;;8322467;28;20359;-68
2021/04/30 16:44:35;;;;;;;12.15;6.22;;;;;;;;;;8322025;28;20497;-69
2021/04/30 16:48:47;;;;;;;9.65;5.38;;;;;;;;;;8323198;28;20066;-68
2021/04/30 16:52:51;;;;;;;9.70;3.75;;;;;;;;;;8325979;28;20397;-69
2021/04/30 16:56:56;;;;;;;10.18;5.18;;;;;;;;;;8310362;28;20386;-68
2021/04/30 17:01:00;;;;;;;5.45;3.40;;;;;;;;;;8328906;28;20413;-70
2021/04/30 17:05:06;;;;;;;5.65;2.65;;;;;;;;;;8328722;28;20242;-68
2021/04/30 17:09:11;;;;;;;10.55;2.80;;;;;;;;;;8295322;28;20359;-69
2021/04/30 17:13:15;;;;;;;7.40;3.85;;;;;;;;;;8327417;28;20468;-69
2021/04/30 17:17:20;;;;;;;9.45;5.60;;;;;;;;;;8328799;28;20360;-68
2021/04/30 17:21:24;;;;;;;11.57;5.35;;;;;;;;;;8327886;28;20477;-69
2021/04/30 17:25:30;;;;;;;15.57;6.43;;;;;;;;;;8328252;28;20379;-69
2021/04/30 17:29:36;;;;;;;17.85;9.57;;;;;;;;;;8310047;28;20499;-68
2021/04/30 17:33:40;;;;;;;45.03;23.98;;;;;;;;;;8328939;28;20366;-69
2021/04/30 17:37:45;;;;;;;24.33;12.23;;;;;;;;;;8328855;28;20400;-70
2021/04/30 17:41:48;;;;;;;13.98;8.10;;;;;;;;;;8326806;28;20374;-69
2021/04/30 17:45:55;;;;;;;12.27;6.82;;;;;;;;;;8327305;28;20401;-68
2021/04/30 17:50:00;;;;;;;8.55;4.53;;;;;;;;;;8327067;28;20044;-68
2021/04/30 17:54:24;;;;;;;6.50;3.42;;;;;;;;;;8296092;28;20449;-69
2021/04/30 17:58:29;;;;;;;7.88;3.78;;;;;;;;;;8326975;28;20461;-68
2021/04/30 18:02:34;;;;;;;5.70;3.35;;;;;;;;;;8327327;28;20355;-69
2021/04/30 18:06:38;;;;;;;22.75;4.20;;;;;;;;;;8326791;28;20451;-68
2021/04/30 18:10:43;;;;;;;8.13;3.42;;;;;;;;;;8307859;28;20355;-70
2021/04/30 18:14:47;;;;;;;6.95;5.43;;;;;;;;;;8325965;28;20470;-69
2021/04/30 18:18:52;;;;;;;7.78;5.20;;;;;;;;;;8325282;28;20048;-69
2021/04/30 18:22:57;;;;;;;5.97;3.15;;;;;;;;;;8325765;28;20475;-68
2021/04/30 18:27:05;;;;;;;5.15;2.90;;;;;;;;;;8327240;28;20485;-68
2021/04/30 18:31:09;;;;;;;9.38;3.47;;;;;;;;;;8325099;28;20418;-67
2021/04/30 18:35:14;;;;;;;12.70;6.65;;;;;;;;;;8326461;28;20469;-69
2021/04/30 18:39:23;;;;;;;6.10;3.33;;;;;;;;;;8326385;28;20367;-68
2021/04/30 18:43:27;;;;;;;8.77;3.80;;;;;;;;;;8325443;28;20484;-68
2021/04/30 18:47:32;;;;;;;11.68;4.68;;;;;;;;;;8326111;28;20367;-68
2021/04/30 18:51:38;;;;;;;7.78;4.10;;;;;;;;;;8308175;28;20455;-69
2021/04/30 18:55:42;;;;;;;11.18;4.38;;;;;;;;;;8324986;28;20435;-69
2021/04/30 18:59:46;;;;;;;14.13;5.57;;;;;;;;;;8326020;28;20439;-68
2021/04/30 19:03:51;;;;;;;9.80;5.32;;;;;;;;;;8326292;28;20439;-68
2021/04/30 19:07:57;;;;;;;11.60;5.95;;;;;;;;;;8307146;28;20382;-68
2021/04/30 19:12:02;;;;;;;11.35;5.78;;;;;;;;;;8306195;28;20405;-69
2021/04/30 19:16:07;;;;;;;14.52;6.00;;;;;;;;;;8325575;28;20393;-68
2021/04/30 19:20:13;;;;;;;8.05;4.63;;;;;;;;;;8324827;28;20040;-67
2021/04/30 19:24:17;;;;;;;10.40;5.35;;;;;;;;;;8325209;28;20074;-68
2021/04/30 19:28:22;;;;;;;7.65;4.28;;;;;;;;;;8325953;28;20366;-68
2021/04/30 19:32:27;;;;;;;11.52;4.60;;;;;;;;;;8305847;28;20406;-69
2021/04/30 19:36:32;;;;;;;8.23;4.57;;;;;;;;;;8324095;28;20489;-68
2021/04/30 19:40:38;;;;;;;17.38;5.30;;;;;;;;;;8324606;28;20346;-68
2021/04/30 19:44:42;;;;;;;13.00;5.70;;;;;;;;;;8324220;28;21149;-68
2021/04/30 19:48:46;;;;;;;8.90;4.88;;;;;;;;;;8324276;28;20480;-69
2021/04/30 19:52:51;;;;;;;10.50;5.30;;;;;;;;;;8325560;28;20493;-68
2021/04/30 19:57:05;;;;;;;8.10;5.30;;;;;;;;;;8325198;28;20070;-68
2021/04/30 20:01:10;;;;;;;16.55;5.30;;;;;;;;;;8323804;28;20485;-68
2021/04/30 20:05:15;;;;;;;7.95;4.80;;;;;;;;;;8322463;28;20479;-70
2021/04/30 20:09:19;;;;;;;9.18;5.10;;;;;;;;;;8323007;28;20379;-69
2021/04/30 20:13:23;;;;;;;11.32;6.20;;;;;;;;;;8322411;28;20056;-68
2021/04/30 20:17:27;;;;;;;11.82;6.43;;;;;;;;;;8324299;28;20481;-68
2021/04/30 20:21:32;;;;;;;9.70;6.20;;;;;;;;;;8322802;28;20382;-68
2021/04/30 20:25:39;;;;;;;12.80;6.25;;;;;;;;;;8324588;28;20360;-68
2021/04/30 20:29:43;;;;;;;15.50;7.10;;;;;;;;;;8329522;28;20067;-69
2021/04/30 20:33:49;;;;;;;12.55;6.68;;;;;;;;;;8329813;28;20409;-68
2021/04/30 20:37:54;;;;;;;12.63;7.35;;;;;;;;;;8330433;28;20389;-68
2021/04/30 20:42:06;;;;;;;10.05;6.97;;;;;;;;;;8314946;28;20485;-69
2021/04/30 20:46:10;;;;;;;12.10;7.80;;;;;;;;;;8329796;28;20397;-69
2021/04/30 20:50:14;;;;;;;11.43;7.25;;;;;;;;;;8329194;28;20486;-69
2021/04/30 20:54:18;;;;;;;9.73;6.55;;;;;;;;;;8331206;28;20458;-68
2021/04/30 20:58:22;;;;;;;9.93;7.00;;;;;;;;;;8312066;28;20451;-68
2021/04/30 21:02:29;;;;;;;13.90;7.45;;;;;;;;;;8329947;28;20364;-69
2021/04/30 21:06:34;;;;;;;11.48;7.55;;;;;;;;;;8328367;28;20378;-68
2021/04/30 21:10:41;;;;;;;11.18;7.60;;;;;;;;;;8293458;28;20048;-68
2021/04/30 21:14:45;;;;;;;12.65;7.80;;;;;;;;;;8328625;28;20473;-69
2021/04/30 21:18:49;;;;;;;11.40;8.35;;;;;;;;;;8329136;28;20048;-69
2021/04/30 21:22:53;;;;;;;13.63;8.20;;;;;;;;;;8330091;28;20401;-69
2021/04/30 21:27:01;;;;;;;13.95;7.75;;;;;;;;;;8328665;28;20502;-70
2021/04/30 21:31:06;;;;;;;17.42;8.80;;;;;;;;;;8327845;28;20055;-68
2021/04/30 21:35:12;;;;;;;11.60;7.63;;;;;;;;;;8327522;28;20386;-69
2021/04/30 21:39:16;;;;;;;13.55;8.38;;;;;;;;;;8309305;28;20443;-68
2021/04/30 21:43:19;;;;;;;11.75;8.35;;;;;;;;;;8327790;28;20577;-69
2021/04/30 21:47:23;;;;;;;11.90;7.90;;;;;;;;;;8327664;28;20472;-68
2021/04/30 21:51:28;;;;;;;14.32;8.93;;;;;;;;;;8329172;28;20059;-68
2021/04/30 21:55:32;;;;;;;16.27;9.52;;;;;;;;;;8327078;28;20386;-69
2021/04/30 21:59:37;;;;;;;14.68;8.48;;;;;;;;;;8327920;28;20079;-68
2021/04/30 22:03:41;;;;;;;11.05;7.25;;;;;;;;;;8327813;28;20375;-68
2021/04/30 22:07:49;;;;;;;12.10;7.53;;;;;;;;;;8328501;28;20052;-68
2021/04/30 22:12:15;;;;;;;13.35;8.13;;;;;;;;;;8327429;28;20504;-69
2021/04/30 22:16:28;;;;;;;11.73;8.45;;;;;;;;;;8327500;28;20484;-68
2021/04/30 22:20:34;;;;;;;18.45;8.60;;;;;;;;;;8328204;28;20401;-69
2021/04/30 22:24:48;;;;;;;12.13;7.88;;;;;;;;;;8328915;28;20334;-68
2021/04/30 22:29:10;;;;;;;17.60;8.50;;;;;;;;;;8327106;28;20044;-68
2021/04/30 22:33:14;;;;;;;15.13;8.93;;;;;;;;;;8308510;28;20056;-68
2021/04/30 22:37:21;;;;;;;15.60;9.80;;;;;;;;;;8307869;28;20098;-68
2021/04/30 22:41:26;;;;;;;13.80;8.32;;;;;;;;;;8325908;28;20486;-68
2021/04/30 22:45:30;;;;;;;15.07;8.80;;;;;;;;;;8326283;28;20351;-68
2021/04/30 22:49:39;;;;;;;12.77;8.40;;;;;;;;;;8324796;28;20378;-68
2021/04/30 22:53:46;;;;;;;12.10;7.90;;;;;;;;;;8327224;28;20074;-70
2021/04/30 22:57:50;;;;;;;12.40;7.97;;;;;;;;;;8325092;28;20466;-68
2021/04/30 23:01:55;;;;;;;14.77;9.07;;;;;;;;;;8325266;28;20351;-68
2021/04/30 23:05:59;;;;;;;13.20;8.90;;;;;;;;;;8324962;28;20466;-67
2021/04/30 23:10:03;;;;;;;15.00;9.40;;;;;;;;;;8327312;28;20373;-68
2021/04/30 23:14:08;;;;;;;15.18;9.23;;;;;;;;;;8325411;28;20498;-68
2021/04/30 23:18:12;;;;;;;13.25;8.13;;;;;;;;;;8324969;28;20344;-68
2021/04/30 23:22:17;;;;;;;13.82;8.85;;;;;;;;;;8325023;28;20524;-68
2021/04/30 23:26:21;;;;;;;13.77;8.80;;;;;;;;;;8307268;28;20375;-69
2021/04/30 23:30:26;;;;;;;12.30;8.68;;;;;;;;;;8324760;28;20517;-69
2021/04/30 23:34:30;;;;;;;11.60;8.25;;;;;;;;;;8324200;28;20336;-70
2021/04/30 23:38:34;;;;;;;14.07;8.82;;;;;;;;;;8324374;28;20052;-69
2021/04/30 23:42:39;;;;;;;17.40;9.48;;;;;;;;;;8323707;28;20392;-69
2021/04/30 23:46:49;;;;;;;12.63;8.35;;;;;;;;;;8324164;28;20398;-69
2021/04/30 23:50:54;;;;;;;14.18;8.82;;;;;;;;;;8325303;28;20359;-68
2021/04/30 23:54:58;;;;;;;12.82;8.65;;;;;;;;;;8306774;28;20365;-69
2021/04/30 23:59:03;;;;;;;15.90;8.77;;;;;;;;;;8324823;28;20340;-68
